Time;durP1;ratioP1;P1;durP2;ratioP2;P2;SDS_P1;SDS_P2;PMS_P1;PMS_P2;Temp;Humidity;BMP_temperature;BMP_pressure;BME280_temperature;BME280_humidity;BME280_pressure;Samples;Min_cycle;Max_cycle;Signal;HPM_P1;HPM_P2
2022/06/03 00:02:02;;;;;;;5.40;4.90;;;;;;;;;;5002140;28;20018;-68
2022/06/03 00:04:47;;;;;;;6.95;4.80;;;;;;;;;;4986893;28;20026;-70
2022/06/03 00:07:27;;;;;;;7.03;4.63;;;;;;;;;;4984321;28;20476;-69
2022/06/03 00:10:12;;;;;;;6.10;4.65;;;;;;;;;;5007679;28;20168;-68
2022/06/03 00:12:52;;;;;;;7.18;4.32;;;;;;;;;;5005101;28;20097;-70
2022/06/03 00:15:30;;;;;;;6.28;4.60;;;;;;;;;;4985435;28;20149;-68
2022/06/03 00:17:55;;;;;;;5.85;4.40;;;;;;;;;;4989938;28;20092;-69
2022/06/03 00:20:23;;;;;;;7.97;4.10;;;;;;;;;;4984225;28;20471;-70
2022/06/03 00:23:07;;;;;;;5.40;3.90;;;;;;;;;;5003845;28;20044;-68
2022/06/03 00:25:45;;;;;;;6.07;4.22;;;;;;;;;;4986945;28;20018;-68
2022/06/03 00:28:13;;;;;;;4.22;3.83;;;;;;;;;;5004788;28;20505;-68
2022/06/03 00:30:57;;;;;;;8.85;4.50;;;;;;;;;;4989428;28;20040;-68
2022/06/03 00:33:32;;;;;;;6.45;3.80;;;;;;;;;;4984638;28;20346;-69
2022/06/03 00:35:57;;;;;;;3.80;3.38;;;;;;;;;;4985642;28;20203;-69
2022/06/03 00:38:38;;;;;;;6.35;3.97;;;;;;;;;;4985336;28;20025;-69
2022/06/03 00:41:11;;;;;;;6.70;3.60;;;;;;;;;;5002891;28;20109;-67
2022/06/03 00:43:48;;;;;;;5.78;3.58;;;;;;;;;;4988453;28;20435;-68
2022/06/03 00:46:18;;;;;;;5.70;4.05;;;;;;;;;;4986175;28;20018;-68
2022/06/03 00:48:58;;;;;;;7.00;3.67;;;;;;;;;;5002477;28;20410;-69
2022/06/03 00:51:42;;;;;;;7.95;4.10;;;;;;;;;;4986763;28;20025;-69
2022/06/03 00:54:31;;;;;;;4.07;3.67;;;;;;;;;;5000747;28;20053;-69
2022/06/03 00:56:57;;;;;;;3.72;3.38;;;;;;;;;;5003691;28;20033;-68
2022/06/03 00:59:37;;;;;;;5.97;3.50;;;;;;;;;;4987161;28;20018;-67
2022/06/03 01:02:13;;;;;;;4.55;3.75;;;;;;;;;;5005237;28;20256;-68
2022/06/03 01:04:53;;;;;;;5.50;3.60;;;;;;;;;;5003638;28;20021;-68
2022/06/03 01:07:25;;;;;;;4.10;3.70;;;;;;;;;;5003001;28;20546;-68
2022/06/03 01:10:10;;;;;;;5.72;3.47;;;;;;;;;;4988356;28;20076;-69
2022/06/03 01:12:53;;;;;;;5.57;3.47;;;;;;;;;;4990223;28;20451;-70
2022/06/03 01:15:19;;;;;;;5.47;3.58;;;;;;;;;;4986012;28;20048;-69
2022/06/03 01:17:48;;;;;;;4.65;3.67;;;;;;;;;;4987780;28;20037;-69
2022/06/03 01:20:31;;;;;;;5.25;3.92;;;;;;;;;;4983149;28;20021;-68
2022/06/03 01:23:24;;;;;;;5.40;3.58;;;;;;;;;;5004481;28;20496;-69
2022/06/03 01:25:51;;;;;;;5.65;3.38;;;;;;;;;;4985640;28;20444;-69
2022/06/03 01:28:27;;;;;;;5.82;3.97;;;;;;;;;;5003852;28;20022;-69
2022/06/03 01:31:11;;;;;;;6.32;3.80;;;;;;;;;;5004217;28;20033;-69
2022/06/03 01:33:50;;;;;;;4.90;3.63;;;;;;;;;;4984682;28;20030;-68
2022/06/03 01:36:28;;;;;;;5.95;3.65;;;;;;;;;;4982829;28;20026;-70
2022/06/03 01:38:53;;;;;;;5.55;3.70;;;;;;;;;;5003823;28;20103;-69
2022/06/03 01:41:37;;;;;;;5.70;3.55;;;;;;;;;;5001758;28;20025;-68
2022/06/03 01:44:27;;;;;;;5.50;3.63;;;;;;;;;;4985471;28;20052;-67
2022/06/03 01:47:21;;;;;;;4.68;3.63;;;;;;;;;;4985591;28;20026;-69
2022/06/03 01:49:52;;;;;;;4.15;3.47;;;;;;;;;;5001254;28;20168;-68
2022/06/03 01:52:17;;;;;;;4.78;3.58;;;;;;;;;;5001449;28;20077;-68
2022/06/03 01:54:55;;;;;;;4.97;3.97;;;;;;;;;;4986159;28;20053;-69
2022/06/03 01:57:33;;;;;;;3.80;3.42;;;;;;;;;;4999814;28;20553;-69
2022/06/03 02:00:13;;;;;;;5.03;3.40;;;;;;;;;;5002128;28;20108;-68
2022/06/03 02:02:44;;;;;;;5.13;3.65;;;;;;;;;;5002515;28;20032;-69
2022/06/03 02:05:12;;;;;;;5.05;3.78;;;;;;;;;;4978313;28;20032;-69
2022/06/03 02:07:56;;;;;;;6.40;3.95;;;;;;;;;;5001942;28;20094;-69
2022/06/03 02:10:21;;;;;;;4.22;3.80;;;;;;;;;;4980608;28;20025;-69
2022/06/03 02:12:47;;;;;;;3.97;3.58;;;;;;;;;;5001786;28;20021;-69
2022/06/03 02:15:12;;;;;;;4.82;3.33;;;;;;;;;;4982729;28;20029;-68
2022/06/03 02:18:00;;;;;;;4.07;3.67;;;;;;;;;;4984460;28;20029;-68
2022/06/03 02:20:34;;;;;;;4.03;3.63;;;;;;;;;;4972169;28;20149;-68
2022/06/03 02:23:06;;;;;;;4.85;3.67;;;;;;;;;;4985354;28;20072;-67
2022/06/03 02:25:44;;;;;;;4.55;4.03;;;;;;;;;;4979506;28;20040;-68
2022/06/03 02:28:18;;;;;;;5.93;4.03;;;;;;;;;;5002109;28;20029;-69
2022/06/03 02:30:59;;;;;;;5.35;4.10;;;;;;;;;;4984108;28;20128;-70
2022/06/03 02:33:37;;;;;;;4.93;3.60;;;;;;;;;;4985140;28;20017;-68
2022/06/03 02:36:05;;;;;;;5.72;4.20;;;;;;;;;;4981657;28;20014;-69
2022/06/03 02:38:46;;;;;;;5.90;4.07;;;;;;;;;;4999599;28;20059;-69
2022/06/03 02:41:30;;;;;;;6.40;3.90;;;;;;;;;;4979402;28;20014;-68
2022/06/03 02:43:56;;;;;;;4.40;3.75;;;;;;;;;;4983637;28;20480;-69
2022/06/03 02:46:41;;;;;;;4.32;3.88;;;;;;;;;;4983583;28;20029;-69
2022/06/03 02:49:28;;;;;;;5.90;3.47;;;;;;;;;;4983057;28;20056;-69
2022/06/03 02:52:06;;;;;;;6.10;3.85;;;;;;;;;;4985098;28;20010;-69
2022/06/03 02:54:31;;;;;;;5.57;4.10;;;;;;;;;;4982259;28;20747;-69
2022/06/03 02:57:15;;;;;;;6.72;4.43;;;;;;;;;;4981422;28;20112;-68
2022/06/03 02:59:53;;;;;;;5.47;4.03;;;;;;;;;;5001212;28;20526;-69
2022/06/03 03:02:37;;;;;;;5.35;3.67;;;;;;;;;;5000787;28;20022;-68
2022/06/03 03:05:12;;;;;;;5.03;3.60;;;;;;;;;;5001323;28;20101;-68
2022/06/03 03:07:57;;;;;;;5.68;4.10;;;;;;;;;;4981687;28;20041;-68
2022/06/03 03:10:41;;;;;;;3.92;3.53;;;;;;;;;;4998154;28;20010;-69
2022/06/03 03:13:25;;;;;;;4.95;3.78;;;;;;;;;;4984935;28;20073;-69
2022/06/03 03:15:50;;;;;;;4.90;3.45;;;;;;;;;;5001426;28;20022;-68
2022/06/03 03:18:22;;;;;;;8.02;4.07;;;;;;;;;;4982621;28;20026;-68
2022/06/03 03:21:06;;;;;;;6.38;4.18;;;;;;;;;;4983614;28;20163;-68
2022/06/03 03:23:49;;;;;;;5.65;4.38;;;;;;;;;;4982567;28;20041;-68
2022/06/03 03:26:15;;;;;;;5.85;3.72;;;;;;;;;;4980662;28;20266;-69
2022/06/03 03:28:59;;;;;;;6.70;4.22;;;;;;;;;;4984565;28;20029;-68
2022/06/03 03:31:33;;;;;;;5.07;4.00;;;;;;;;;;5001804;28;20025;-69
2022/06/03 03:34:05;;;;;;;4.68;3.97;;;;;;;;;;4984077;28;20022;-69
2022/06/03 03:36:36;;;;;;;4.35;3.80;;;;;;;;;;4980850;28;20112;-69
2022/06/03 03:39:04;;;;;;;6.68;4.45;;;;;;;;;;5002476;28;20033;-70
2022/06/03 03:41:42;;;;;;;5.10;3.97;;;;;;;;;;4999854;28;20048;-68
2022/06/03 03:44:26;;;;;;;4.22;3.83;;;;;;;;;;5006903;28;20491;-68
2022/06/03 03:47:11;;;;;;;5.28;4.20;;;;;;;;;;5005341;28;20579;-68
2022/06/03 03:50:01;;;;;;;8.15;3.88;;;;;;;;;;4985091;28;20623;-68
2022/06/03 03:52:29;;;;;;;4.35;3.78;;;;;;;;;;4975608;28;20034;-68
2022/06/03 03:55:23;;;;;;;6.20;3.95;;;;;;;;;;4988589;28;20029;-68
2022/06/03 03:57:59;;;;;;;5.60;4.03;;;;;;;;;;5006080;28;20026;-69
2022/06/03 04:00:35;;;;;;;4.75;3.92;;;;;;;;;;5002959;28;20053;-69
2022/06/03 04:03:19;;;;;;;5.95;4.00;;;;;;;;;;5007313;28;20013;-69
2022/06/03 04:05:48;;;;;;;8.45;4.57;;;;;;;;;;4985609;28;20037;-69
2022/06/03 04:08:16;;;;;;;5.35;3.92;;;;;;;;;;5004901;28;20101;-69
2022/06/03 04:10:59;;;;;;;5.60;3.80;;;;;;;;;;5000920;28;20022;-68
2022/06/03 04:13:25;;;;;;;4.85;4.20;;;;;;;;;;5004579;28;20421;-68
2022/06/03 04:16:09;;;;;;;6.87;4.20;;;;;;;;;;4986772;28;20164;-69
2022/06/03 04:18:34;;;;;;;5.63;4.10;;;;;;;;;;4987117;28;20259;-69
2022/06/03 04:21:12;;;;;;;5.47;4.30;;;;;;;;;;4985370;28;20391;-69
2022/06/03 04:23:48;;;;;;;5.47;3.70;;;;;;;;;;5003153;28;20340;-69
2022/06/03 04:26:13;;;;;;;4.47;4.03;;;;;;;;;;5001964;28;20048;-69
2022/06/03 04:28:44;;;;;;;6.50;4.43;;;;;;;;;;4985766;28;20427;-69
2022/06/03 04:31:24;;;;;;;5.13;4.30;;;;;;;;;;5004401;28;20282;-69
2022/06/03 04:33:52;;;;;;;4.75;4.18;;;;;;;;;;4988027;28;20037;-70
2022/06/03 04:36:36;;;;;;;6.30;4.95;;;;;;;;;;4985511;28;20072;-69
2022/06/03 04:39:07;;;;;;;5.55;4.22;;;;;;;;;;5003310;28;20065;-70
2022/06/03 04:41:51;;;;;;;9.73;4.50;;;;;;;;;;5001618;28;20022;-70
2022/06/03 04:44:23;;;;;;;5.13;4.47;;;;;;;;;;4989003;28;20031;-68
2022/06/03 04:47:08;;;;;;;5.25;4.78;;;;;;;;;;4986263;28;20017;-69
2022/06/03 04:49:52;;;;;;;5.75;4.70;;;;;;;;;;5003963;28;20033;-68
2022/06/03 04:52:36;;;;;;;5.95;4.63;;;;;;;;;;4982241;28;20032;-68
2022/06/03 04:55:02;;;;;;;5.90;4.78;;;;;;;;;;5001237;28;20018;-69
2022/06/03 04:57:39;;;;;;;8.18;4.90;;;;;;;;;;4983166;28;20041;-68
2022/06/03 05:00:08;;;;;;;5.45;4.78;;;;;;;;;;5004623;28;20072;-69
2022/06/03 05:02:52;;;;;;;9.85;4.90;;;;;;;;;;4987880;28;20018;-69
2022/06/03 05:05:17;;;;;;;8.70;4.97;;;;;;;;;;4986129;28;20779;-69
2022/06/03 05:08:01;;;;;;;5.03;4.50;;;;;;;;;;4985406;28;20625;-69
2022/06/03 05:10:44;;;;;;;7.20;5.15;;;;;;;;;;5002266;28;20414;-69
2022/06/03 05:13:10;;;;;;;8.30;5.05;;;;;;;;;;5004716;28;20022;-69
2022/06/03 05:15:54;;;;;;;5.97;5.38;;;;;;;;;;4984799;28;20022;-69
2022/06/03 05:18:19;;;;;;;7.22;5.18;;;;;;;;;;5007044;28;20113;-69
2022/06/03 05:21:03;;;;;;;6.00;5.00;;;;;;;;;;4999859;28;20869;-69
2022/06/03 05:23:41;;;;;;;6.15;4.70;;;;;;;;;;4982196;28;20095;-68
2022/06/03 05:26:15;;;;;;;5.70;4.78;;;;;;;;;;5001624;28;20021;-69
2022/06/03 05:28:53;;;;;;;7.03;5.03;;;;;;;;;;4983656;28;20357;-69
2022/06/03 05:31:37;;;;;;;8.00;5.00;;;;;;;;;;5004984;28;20018;-68
2022/06/03 05:34:16;;;;;;;6.35;5.07;;;;;;;;;;5005187;28;20029;-69
2022/06/03 05:36:47;;;;;;;5.20;4.70;;;;;;;;;;4998293;28;20017;-69
2022/06/03 05:39:31;;;;;;;5.90;5.20;;;;;;;;;;5000811;28;20069;-69
2022/06/03 05:44:56;;;;;;;7.85;5.30;;;;;;;;;;5003159;28;20519;-69
2022/06/03 05:47:24;;;;;;;6.78;5.13;;;;;;;;;;4986410;28;20057;-69
2022/06/03 05:50:07;;;;;;;7.07;5.18;;;;;;;;;;4985707;28;20034;-68
2022/06/03 05:52:36;;;;;;;5.60;5.00;;;;;;;;;;4964439;28;20032;-69
2022/06/03 05:55:27;;;;;;;6.50;4.93;;;;;;;;;;4986123;28;20403;-69
2022/06/03 05:57:58;;;;;;;8.18;5.22;;;;;;;;;;5002252;28;20059;-68
2022/06/03 06:00:34;;;;;;;9.50;4.80;;;;;;;;;;5004687;28;20093;-68
2022/06/03 06:03:19;;;;;;;6.07;4.85;;;;;;;;;;5002009;28;20428;-68
2022/06/03 06:05:51;;;;;;;9.18;5.28;;;;;;;;;;4979525;28;20425;-68
2022/06/03 06:08:16;;;;;;;7.03;5.10;;;;;;;;;;5000544;28;20018;-68
2022/06/03 06:10:44;;;;;;;6.95;5.00;;;;;;;;;;4978435;28;20033;-68
2022/06/03 06:13:21;;;;;;;7.57;4.80;;;;;;;;;;4985888;28;20388;-69
2022/06/03 06:16:06;;;;;;;5.70;5.10;;;;;;;;;;4997477;28;20033;-68
2022/06/03 06:18:44;;;;;;;7.25;5.85;;;;;;;;;;4984236;28;20026;-69
2022/06/03 06:21:28;;;;;;;5.20;4.70;;;;;;;;;;4982222;28;20028;-69
2022/06/03 06:24:05;;;;;;;8.00;4.88;;;;;;;;;;4998152;28;20057;-69
2022/06/03 06:26:48;;;;;;;4.97;4.47;;;;;;;;;;4999812;28;20028;-68
2022/06/03 06:29:14;;;;;;;5.88;4.80;;;;;;;;;;5001768;28;20044;-69
2022/06/03 06:32:06;;;;;;;6.30;4.85;;;;;;;;;;4997822;28;20310;-68
2022/06/03 06:34:31;;;;;;;6.32;4.43;;;;;;;;;;4984763;28;20029;-69
2022/06/03 06:37:26;;;;;;;5.03;4.60;;;;;;;;;;4980434;28;20037;-69
2022/06/03 06:40:09;;;;;;;8.38;4.97;;;;;;;;;;5002857;28;20276;-69
2022/06/03 06:42:43;;;;;;;5.28;4.20;;;;;;;;;;5002031;28;20030;-69
2022/06/03 06:45:27;;;;;;;6.82;4.90;;;;;;;;;;5003003;28;20113;-69
2022/06/03 06:48:11;;;;;;;5.47;4.07;;;;;;;;;;4982308;28;20136;-68
2022/06/03 06:51:00;;;;;;;7.25;4.57;;;;;;;;;;5000487;28;20030;-69
2022/06/03 06:53:38;;;;;;;7.10;4.57;;;;;;;;;;4988834;28;20479;-68
2022/06/03 06:56:11;;;;;;;7.13;4.82;;;;;;;;;;4980059;28;20108;-67
2022/06/03 06:58:43;;;;;;;7.60;4.78;;;;;;;;;;5002211;28;20017;-67
2022/06/03 07:01:09;;;;;;;6.60;4.78;;;;;;;;;;5000401;28;20097;-68
2022/06/03 07:03:37;;;;;;;6.65;5.10;;;;;;;;;;5002256;28;20025;-69
2022/06/03 07:06:11;;;;;;;6.43;4.70;;;;;;;;;;4979365;28;20307;-69
2022/06/03 07:08:40;;;;;;;5.75;4.60;;;;;;;;;;4999250;28;20098;-68
2022/06/03 07:11:06;;;;;;;5.97;4.93;;;;;;;;;;4980741;28;20333;-68
2022/06/03 07:13:46;;;;;;;5.38;4.57;;;;;;;;;;5002515;28;20033;-68
2022/06/03 07:19:47;;;;;;;6.05;4.60;;;;;;;;;;5000140;28;20358;-67
2022/06/03 07:22:13;;;;;;;4.68;4.20;;;;;;;;;;4997797;28;20499;-68
2022/06/03 07:24:58;;;;;;;4.70;4.20;;;;;;;;;;5002279;28;20129;-69
2022/06/03 07:27:42;;;;;;;7.13;4.53;;;;;;;;;;4952998;28;20491;-71
2022/06/03 07:30:12;;;;;;;5.25;4.10;;;;;;;;;;4983177;28;20247;-68
2022/06/03 07:32:42;;;;;;;6.15;4.57;;;;;;;;;;5000405;28;20076;-68
2022/06/03 07:35:26;;;;;;;7.45;4.70;;;;;;;;;;4981816;28;20022;-68
2022/06/03 07:37:54;;;;;;;5.90;4.10;;;;;;;;;;4992006;28;20120;-68
2022/06/03 07:40:24;;;;;;;5.72;4.25;;;;;;;;;;5000219;28;20439;-68
2022/06/03 07:43:12;;;;;;;7.07;4.63;;;;;;;;;;4998305;28;20460;-68
2022/06/03 07:46:06;;;;;;;5.68;4.60;;;;;;;;;;4982968;28;20121;-69
2022/06/03 07:48:33;;;;;;;5.53;3.75;;;;;;;;;;4982912;28;20192;-68
2022/06/03 07:51:05;;;;;;;6.57;4.38;;;;;;;;;;4996460;28;20052;-68
2022/06/03 07:53:36;;;;;;;5.07;3.72;;;;;;;;;;4980609;28;20033;-68
2022/06/03 07:56:01;;;;;;;4.50;4.00;;;;;;;;;;4976463;28;20592;-67
2022/06/03 07:58:30;;;;;;;5.80;3.88;;;;;;;;;;4982655;28;20745;-67
2022/06/03 08:00:55;;;;;;;6.50;4.63;;;;;;;;;;4977895;28;20026;-67
2022/06/03 08:03:22;;;;;;;5.07;4.50;;;;;;;;;;4965943;28;20029;-67
2022/06/03 08:05:48;;;;;;;4.60;4.20;;;;;;;;;;4996312;28;20029;-66
2022/06/03 08:11:06;;;;;;;5.78;4.38;;;;;;;;;;4996167;28;20092;-69
2022/06/03 08:13:34;;;;;;;6.38;4.00;;;;;;;;;;4968332;28;20025;-68
2022/06/03 08:16:01;;;;;;;8.07;4.00;;;;;;;;;;4999748;28;20089;-69
2022/06/03 08:18:28;;;;;;;5.72;4.32;;;;;;;;;;5000970;28;20022;-69
2022/06/03 08:21:14;;;;;;;5.55;3.75;;;;;;;;;;4980816;28;20052;-68
2022/06/03 08:23:39;;;;;;;4.45;3.95;;;;;;;;;;4968017;28;20022;-68
2022/06/03 08:26:09;;;;;;;5.28;4.38;;;;;;;;;;4998007;28;20251;-68
2022/06/03 08:28:36;;;;;;;5.65;4.00;;;;;;;;;;5004033;28;20043;-68
2022/06/03 08:31:03;;;;;;;4.07;3.67;;;;;;;;;;5002652;28;20018;-69
2022/06/03 08:33:49;;;;;;;5.20;4.00;;;;;;;;;;5004106;28;20080;-68
2022/06/03 08:36:18;;;;;;;5.25;4.00;;;;;;;;;;5002972;28;20095;-68
2022/06/03 08:38:47;;;;;;;4.90;3.85;;;;;;;;;;4982301;28;20049;-69
2022/06/03 08:41:31;;;;;;;4.20;3.70;;;;;;;;;;4983744;28;20097;-69
2022/06/03 08:44:14;;;;;;;6.32;4.00;;;;;;;;;;5003618;28;20028;-67
2022/06/03 08:46:49;;;;;;;4.63;3.75;;;;;;;;;;5001684;28;20360;-69
2022/06/03 08:49:18;;;;;;;5.63;4.22;;;;;;;;;;4988494;28;20109;-69
2022/06/03 08:51:47;;;;;;;4.40;3.97;;;;;;;;;;5001077;28;20435;-69
2022/06/03 08:54:16;;;;;;;4.07;3.50;;;;;;;;;;4967606;28;20177;-69
2022/06/03 08:56:44;;;;;;;4.30;3.75;;;;;;;;;;4997570;28;20030;-70
2022/06/03 08:59:14;;;;;;;3.97;3.33;;;;;;;;;;5000605;28;20594;-69
2022/06/03 09:02:09;;;;;;;5.57;3.83;;;;;;;;;;5001301;28;20094;-70
2022/06/03 09:04:41;;;;;;;5.80;4.22;;;;;;;;;;4987767;28;20041;-69
2022/06/03 09:07:14;;;;;;;4.40;4.00;;;;;;;;;;4978904;28;20026;-69
2022/06/03 09:09:52;;;;;;;3.92;3.53;;;;;;;;;;5005476;28;20033;-69
2022/06/03 09:12:23;;;;;;;6.30;4.32;;;;;;;;;;4979980;28;20025;-69
2022/06/03 09:14:50;;;;;;;4.80;3.67;;;;;;;;;;5000941;28;20108;-69
2022/06/03 09:17:34;;;;;;;8.55;4.13;;;;;;;;;;4982296;28;20037;-68
2022/06/03 09:20:02;;;;;;;4.00;2.97;;;;;;;;;;5001630;28;20025;-69
2022/06/03 09:22:31;;;;;;;5.20;3.28;;;;;;;;;;4980107;28;20136;-69
2022/06/03 09:24:58;;;;;;;4.93;3.30;;;;;;;;;;5003569;28;20087;-69
2022/06/03 09:27:25;;;;;;;6.60;4.10;;;;;;;;;;4982371;28;20017;-69
2022/06/03 09:30:02;;;;;;;5.22;3.42;;;;;;;;;;4983344;28;20075;-69
2022/06/03 09:32:27;;;;;;;4.95;3.25;;;;;;;;;;5004395;28;20104;-69
2022/06/03 09:34:56;;;;;;;6.32;3.63;;;;;;;;;;4983650;28;20089;-70
2022/06/03 09:37:24;;;;;;;4.07;3.70;;;;;;;;;;4978049;28;20049;-68
2022/06/03 09:39:51;;;;;;;5.28;3.38;;;;;;;;;;5004954;28;20034;-70
2022/06/03 09:42:18;;;;;;;5.72;3.42;;;;;;;;;;4978964;28;20045;-69
2022/06/03 09:44:45;;;;;;;4.72;3.60;;;;;;;;;;5005674;28;20034;-68
2022/06/03 09:47:11;;;;;;;6.28;3.50;;;;;;;;;;4999594;28;20105;-68
2022/06/03 09:49:36;;;;;;;5.75;3.60;;;;;;;;;;5006011;28;20014;-70
2022/06/03 09:52:03;;;;;;;3.72;3.05;;;;;;;;;;4980865;28;20108;-69
2022/06/03 09:54:32;;;;;;;6.07;3.83;;;;;;;;;;4965746;28;20443;-69
2022/06/03 09:57:23;;;;;;;5.88;3.42;;;;;;;;;;4995633;28;20163;-69
2022/06/03 10:00:03;;;;;;;7.47;3.50;;;;;;;;;;4994158;28;20065;-68
2022/06/03 10:02:30;;;;;;;3.30;3.00;;;;;;;;;;5000890;28;20022;-69
2022/06/03 10:04:56;;;;;;;4.22;2.90;;;;;;;;;;5001640;28;20022;-69
2022/06/03 10:07:25;;;;;;;4.70;3.08;;;;;;;;;;4964932;28;20049;-69
2022/06/03 10:12:56;;;;;;;5.00;3.30;;;;;;;;;;4989623;28;20432;-70
2022/06/03 10:15:40;;;;;;;5.53;3.65;;;;;;;;;;4984862;28;20025;-68
2022/06/03 10:18:44;;;;;;;4.00;3.33;;;;;;;;;;4997963;28;20029;-69
2022/06/03 10:21:10;;;;;;;4.15;3.00;;;;;;;;;;4921584;29;20031;-70
2022/06/03 10:23:46;;;;;;;6.13;3.00;;;;;;;;;;4920310;29;20118;-69
2022/06/03 10:26:37;;;;;;;3.90;2.42;;;;;;;;;;4960379;28;20416;-70
2022/06/03 10:29:09;;;;;;;5.15;3.30;;;;;;;;;;4996260;28;20247;-68
2022/06/03 10:31:35;;;;;;;5.72;3.03;;;;;;;;;;5003575;28;20116;-69
2022/06/03 10:34:03;;;;;;;5.22;3.80;;;;;;;;;;4964709;28;20049;-69
2022/06/03 10:36:32;;;;;;;4.90;3.20;;;;;;;;;;4999792;28;20155;-69
2022/06/03 10:38:57;;;;;;;3.97;2.83;;;;;;;;;;4997014;28;20563;-67
2022/06/03 10:41:30;;;;;;;4.13;2.97;;;;;;;;;;4983315;28;20413;-68
2022/06/03 10:43:55;;;;;;;7.53;3.47;;;;;;;;;;5000341;28;20046;-69
2022/06/03 10:46:21;;;;;;;4.05;3.63;;;;;;;;;;4967444;28;20561;-68
2022/06/03 10:48:46;;;;;;;6.50;2.90;;;;;;;;;;5000410;28;20060;-69
2022/06/03 10:51:13;;;;;;;3.60;2.45;;;;;;;;;;5001206;28;20283;-68
2022/06/03 11:01:54;;;;;;;6.13;2.80;;;;;;;;;;5001758;28;20076;-70
2022/06/03 11:04:23;;;;;;;3.25;2.20;;;;;;;;;;5000247;28;20195;-69
2022/06/03 11:06:49;;;;;;;2.88;1.67;;;;;;;;;;5002447;28;20118;-69
2022/06/03 11:09:15;;;;;;;4.32;2.45;;;;;;;;;;4961499;28;20492;-69
2022/06/03 11:11:46;;;;;;;3.42;2.55;;;;;;;;;;5000549;28;20033;-68
2022/06/03 11:14:30;;;;;;;3.45;2.40;;;;;;;;;;4997511;28;20362;-67
2022/06/03 11:16:59;;;;;;;3.55;2.10;;;;;;;;;;4982642;28;20059;-69
2022/06/03 11:19:24;;;;;;;2.70;2.30;;;;;;;;;;4981132;28;20545;-68
2022/06/03 11:22:23;;;;;;;5.90;2.60;;;;;;;;;;5001032;28;20041;-70
2022/06/03 11:24:53;;;;;;;3.20;2.40;;;;;;;;;;4949738;28;20500;-69
2022/06/03 11:27:21;;;;;;;3.83;2.25;;;;;;;;;;4998450;28;20355;-68
2022/06/03 11:29:48;;;;;;;2.45;2.10;;;;;;;;;;5000625;28;20458;-69
2022/06/03 11:32:14;;;;;;;2.85;2.53;;;;;;;;;;4963917;28;20030;-70
2022/06/03 11:34:49;;;;;;;3.72;2.70;;;;;;;;;;5001089;28;20133;-67
2022/06/03 11:37:22;;;;;;;2.42;2.15;;;;;;;;;;4996702;28;20418;-70
2022/06/03 11:39:47;;;;;;;;;;;;;;;;;;4980105;28;20153;-69
2022/06/03 11:42:13;;;;;;;4.20;2.28;;;;;;;;;;4998542;28;19945;-68
2022/06/03 11:44:38;;;;;;;4.07;2.30;;;;;;;;;;4999209;28;20029;-67
2022/06/03 11:47:12;;;;;;;3.50;2.43;;;;;;;;;;4999321;28;20093;-69
2022/06/03 11:49:37;;;;;;;4.55;2.22;;;;;;;;;;4981453;28;20289;-71
2022/06/03 11:52:04;;;;;;;4.13;2.47;;;;;;;;;;4999567;28;20030;-70
2022/06/03 11:54:31;;;;;;;2.97;2.40;;;;;;;;;;4979074;28;20018;-70
2022/06/03 11:56:57;;;;;;;2.67;2.47;;;;;;;;;;4964220;28;20117;-70
2022/06/03 11:59:39;;;;;;;2.45;2.13;;;;;;;;;;4998911;28;20622;-70
2022/06/03 12:02:04;;;;;;;3.65;2.80;;;;;;;;;;4984115;28;20117;-69
2022/06/03 12:04:33;;;;;;;4.95;2.50;;;;;;;;;;4983088;28;20124;-70
2022/06/03 12:07:13;;;;;;;3.80;2.50;;;;;;;;;;5002278;28;20034;-70
2022/06/03 12:09:45;;;;;;;4.15;2.30;;;;;;;;;;4982737;28;20306;-69
2022/06/03 12:15:18;;;;;;;3.63;2.58;;;;;;;;;;5002316;28;20040;-69
2022/06/03 12:17:44;;;;;;;3.08;2.25;;;;;;;;;;5002879;28;20303;-69
2022/06/03 12:20:33;;;;;;;3.53;2.80;;;;;;;;;;4967193;28;20532;-69
2022/06/03 12:23:11;;;;;;;2.60;2.33;;;;;;;;;;4984837;28;20022;-71
2022/06/03 12:25:41;;;;;;;3.80;2.22;;;;;;;;;;5002506;28;20025;-70
2022/06/03 12:28:29;;;;;;;3.13;2.20;;;;;;;;;;4986340;28;20363;-70
2022/06/03 12:31:03;;;;;;;4.30;2.35;;;;;;;;;;5001288;28;20021;-69
2022/06/03 12:33:34;;;;;;;3.40;1.92;;;;;;;;;;4998524;28;20765;-70
2022/06/03 12:36:05;;;;;;;2.70;2.50;;;;;;;;;;4983263;28;20021;-70
2022/06/03 12:38:32;;;;;;;2.72;2.50;;;;;;;;;;4997791;28;20280;-68
2022/06/03 12:40:59;;;;;;;2.58;2.28;;;;;;;;;;5000379;28;20064;-68
2022/06/03 12:43:30;;;;;;;3.75;2.45;;;;;;;;;;5002847;28;20102;-67
2022/06/03 12:46:03;;;;;;;2.70;2.28;;;;;;;;;;5004824;28;20053;-68
2022/06/03 12:48:36;;;;;;;3.38;2.33;;;;;;;;;;5003553;28;20770;-67
2022/06/03 12:51:19;;;;;;;2.40;2.22;;;;;;;;;;5004138;28;20029;-69
2022/06/03 12:53:46;;;;;;;2.45;2.20;;;;;;;;;;4999519;28;20041;-68
2022/06/03 12:56:20;;;;;;;2.75;2.40;;;;;;;;;;4982464;28;20021;-68
2022/06/03 12:58:51;;;;;;;3.70;2.17;;;;;;;;;;5003755;28;20022;-69
2022/06/03 13:01:46;;;;;;;2.03;1.80;;;;;;;;;;5000467;28;20025;-69
2022/06/03 13:04:24;;;;;;;1.80;1.70;;;;;;;;;;4982581;28;20038;-69
2022/06/03 13:07:08;;;;;;;4.53;1.77;;;;;;;;;;4999513;28;20084;-70
2022/06/03 13:10:03;;;;;;;4.38;1.83;;;;;;;;;;4984053;28;20121;-69
2022/06/03 13:12:44;;;;;;;3.03;2.30;;;;;;;;;;4930891;28;20344;-67
2022/06/03 13:15:21;;;;;;;3.28;2.17;;;;;;;;;;5002640;28;20025;-69
2022/06/03 13:18:13;;;;;;;2.15;1.90;;;;;;;;;;5001822;28;20048;-68
2022/06/03 13:20:41;;;;;;;5.13;2.22;;;;;;;;;;4983967;28;20491;-69
2022/06/03 13:23:29;;;;;;;2.67;2.03;;;;;;;;;;5000835;28;20025;-69
2022/06/03 13:25:55;;;;;;;4.13;2.25;;;;;;;;;;4981651;28;20025;-67
2022/06/03 13:28:30;;;;;;;3.22;2.03;;;;;;;;;;5001411;28;20025;-70
2022/06/03 13:31:03;;;;;;;7.38;1.85;;;;;;;;;;5002719;28;20041;-70
2022/06/03 13:33:29;;;;;;;2.92;1.88;;;;;;;;;;5000142;28;20042;-69
2022/06/03 13:35:59;;;;;;;3.27;1.90;;;;;;;;;;5001341;28;20472;-70
2022/06/03 13:38:37;;;;;;;3.20;2.00;;;;;;;;;;4995700;28;20259;-70
2022/06/03 13:44:19;;;;;;;3.45;1.98;;;;;;;;;;4999800;28;20036;-70
2022/06/03 13:46:48;;;;;;;5.50;2.05;;;;;;;;;;5000720;28;20028;-70
2022/06/03 13:49:23;;;;;;;2.33;1.85;;;;;;;;;;5001156;28;20121;-69
2022/06/03 13:51:48;;;;;;;2.28;2.08;;;;;;;;;;4983285;28;20025;-69
2022/06/03 13:54:21;;;;;;;2.55;2.08;;;;;;;;;;4996366;28;20022;-69
2022/06/03 13:56:55;;;;;;;3.83;2.03;;;;;;;;;;4980394;28;20030;-70
2022/06/03 13:59:20;;;;;;;1.70;1.60;;;;;;;;;;4998283;28;20484;-69
2022/06/03 14:01:49;;;;;;;2.47;1.92;;;;;;;;;;5000529;28;20029;-69
2022/06/03 14:04:18;;;;;;;2.35;1.90;;;;;;;;;;5000774;28;20133;-68
2022/06/03 14:06:55;;;;;;;5.28;2.10;;;;;;;;;;4980337;28;20033;-68
2022/06/03 14:09:23;;;;;;;1.98;1.88;;;;;;;;;;4993143;28;20142;-67
2022/06/03 14:11:55;;;;;;;4.13;1.92;;;;;;;;;;4999130;28;20017;-69
2022/06/03 14:14:20;;;;;;;2.33;1.60;;;;;;;;;;4998501;28;20037;-69
2022/06/03 14:16:52;;;;;;;2.10;1.90;;;;;;;;;;4983903;28;20034;-71
2022/06/03 14:19:39;;;;;;;3.08;1.98;;;;;;;;;;4999407;28;20100;-68
2022/06/03 14:22:10;;;;;;;3.78;2.00;;;;;;;;;;4999773;28;20014;-69
2022/06/03 14:24:38;;;;;;;5.20;1.90;;;;;;;;;;4995644;28;20366;-70
2022/06/03 14:27:22;;;;;;;5.82;2.05;;;;;;;;;;4995523;28;20029;-68
2022/06/03 14:29:52;;;;;;;2.03;1.80;;;;;;;;;;5000523;28;20093;-70
2022/06/03 14:32:21;;;;;;;2.80;1.90;;;;;;;;;;4982472;28;20133;-69
2022/06/03 14:34:49;;;;;;;3.30;2.10;;;;;;;;;;5001007;28;20026;-68
2022/06/03 14:37:21;;;;;;;3.60;1.80;;;;;;;;;;4979775;28;20095;-69
2022/06/03 14:39:48;;;;;;;2.45;2.00;;;;;;;;;;4983910;28;20033;-68
2022/06/03 14:42:24;;;;;;;2.05;1.70;;;;;;;;;;5000296;28;20373;-67
2022/06/03 14:44:49;;;;;;;4.88;1.95;;;;;;;;;;4999124;28;20488;-67
2022/06/03 14:47:21;;;;;;;2.03;1.83;;;;;;;;;;4981506;28;20058;-67
2022/06/03 14:49:54;;;;;;;2.50;1.70;;;;;;;;;;4979542;28;20026;-67
2022/06/03 14:52:25;;;;;;;2.75;1.80;;;;;;;;;;4974534;28;20038;-68
2022/06/03 14:54:56;;;;;;;3.00;2.08;;;;;;;;;;4958293;28;20026;-68
2022/06/03 14:57:24;;;;;;;4.53;1.98;;;;;;;;;;4954330;28;20073;-68
2022/06/03 14:59:50;;;;;;;3.03;1.88;;;;;;;;;;4963035;28;20041;-68
2022/06/03 15:02:30;;;;;;;4.07;1.83;;;;;;;;;;4958493;28;20389;-69
2022/06/03 15:04:59;;;;;;;2.67;1.90;;;;;;;;;;4962057;28;20031;-67
2022/06/03 15:07:27;;;;;;;4.25;1.80;;;;;;;;;;4956065;28;20513;-67
2022/06/03 15:09:55;;;;;;;3.00;1.85;;;;;;;;;;4961304;28;20026;-68
2022/06/03 15:12:23;;;;;;;2.33;2.00;;;;;;;;;;4958910;28;20614;-68
2022/06/03 15:14:48;;;;;;;1.88;1.77;;;;;;;;;;4961556;28;20077;-68
2022/06/03 15:17:14;;;;;;;2.47;1.92;;;;;;;;;;4973343;28;20078;-68
2022/06/03 15:20:10;;;;;;;2.83;2.08;;;;;;;;;;4981208;28;20412;-69
2022/06/03 15:22:40;;;;;;;3.30;2.17;;;;;;;;;;4962457;28;20041;-69
2022/06/03 15:25:18;;;;;;;2.88;1.83;;;;;;;;;;4955165;28;20035;-69
2022/06/03 15:27:54;;;;;;;3.40;1.85;;;;;;;;;;4959070;28;20060;-69
2022/06/03 15:30:32;;;;;;;2.42;2.08;;;;;;;;;;4961217;28;20025;-67
2022/06/03 15:32:58;;;;;;;2.08;1.67;;;;;;;;;;4963446;28;20034;-68
2022/06/03 15:35:28;;;;;;;3.63;1.70;;;;;;;;;;4961750;28;20026;-69
2022/06/03 15:37:54;;;;;;;3.22;1.73;;;;;;;;;;4963551;28;20034;-68
2022/06/03 15:40:21;;;;;;;3.97;2.15;;;;;;;;;;4960369;28;20030;-68
2022/06/03 15:42:49;;;;;;;2.75;2.00;;;;;;;;;;4965267;28;20038;-67
2022/06/03 15:45:21;;;;;;;3.58;1.95;;;;;;;;;;4965322;28;20062;-66
2022/06/03 15:47:47;;;;;;;3.15;2.10;;;;;;;;;;4968223;28;20759;-67
2022/06/03 15:50:15;;;;;;;3.85;2.25;;;;;;;;;;4985134;28;20084;-69
2022/06/03 15:52:48;;;;;;;3.70;2.25;;;;;;;;;;4966313;28;20022;-67